Time;durP1;ratioP1;P1;durP2;ratioP2;P2;SDS_P1;SDS_P2;PMS_P1;PMS_P2;Temp;Humidity;BMP_temperature;BMP_pressure;BME280_temperature;BME280_humidity;BME280_pressure;Samples;Min_cycle;Max_cycle;Signal;HPM_P1;HPM_P2
2021/12/14 00:00:44;;;;;;;1.90;1.10;;;;;;;-145.69;100.00;73615.72;5076105;28;20241;-79
2021/12/14 00:03:15;;;;;;;3.20;1.20;;;;;;;-145.69;100.00;73635.66;5075850;28;20260;-78
2021/12/14 00:05:44;;;;;;;3.50;2.00;;;;;;;-145.69;100.00;73637.63;5075974;28;20249;-79
2021/12/14 00:08:14;;;;;;;7.87;2.93;;;;;;;-145.69;100.00;73641.63;5076037;28;20202;-78
2021/12/14 00:11:12;;;;;;;21.03;5.87;;;;;;;-145.69;100.00;73653.56;5075815;28;20612;-78
2021/12/14 00:13:52;;;;;;;13.13;4.57;;;;;;;-145.69;100.00;73677.47;5075384;28;20195;-78
2021/12/14 00:16:19;;;;;;;22.33;5.27;;;;;;;-145.69;100.00;73681.44;5076247;28;20564;-78
2021/12/14 00:18:45;;;;;;;10.43;4.27;;;;;;;-145.69;100.00;73689.41;5075647;28;20195;-78
2021/12/14 00:21:19;;;;;;;8.87;3.80;;;;;;;-145.69;100.00;73701.34;5075903;28;20210;-79
2021/12/14 00:24:07;;;;;;;8.10;4.23;;;;;;;-145.69;100.00;73703.34;5075925;28;20228;-79
2021/12/14 00:26:41;;;;;;;8.27;3.57;;;;;;;-145.69;100.00;73719.25;5075484;28;20758;-78
2021/12/14 00:29:09;;;;;;;6.83;3.20;;;;;;;-145.69;100.00;73725.25;5075113;28;20207;-78
2021/12/14 00:31:37;;;;;;;7.70;3.20;;;;;;;-145.69;100.00;73737.19;5075105;28;20700;-79
2021/12/14 00:34:06;;;;;;;5.60;2.47;;;;;;;-145.69;100.00;73743.16;5075407;28;20294;-78
2021/12/14 00:36:35;;;;;;;4.13;2.40;;;;;;;-145.69;100.00;73737.19;5075430;28;20203;-78
2021/12/14 00:39:03;;;;;;;4.33;1.83;;;;;;;-145.69;100.00;73735.19;5075345;28;20206;-78
2021/12/14 00:41:33;;;;;;;3.77;2.00;;;;;;;-145.69;100.00;73735.19;5075257;28;20660;-78
2021/12/14 00:44:00;;;;;;;2.20;1.40;;;;;;;-145.69;100.00;73691.38;5075503;28;20237;-79
2021/12/14 00:46:28;;;;;;;3.80;1.87;;;;;;;-145.69;100.00;73679.44;5075219;28;20234;-78
2021/12/14 00:48:55;;;;;;;6.53;2.50;;;;;;;-145.69;100.00;73677.47;5075173;28;20203;-78
2021/12/14 00:51:27;;;;;;;4.23;1.90;;;;;;;-145.69;100.00;73677.47;5075233;28;20535;-79
2021/12/14 00:53:57;;;;;;;5.00;2.43;;;;;;;-145.69;100.00;73687.41;5074731;28;20238;-78
2021/12/14 00:56:24;;;;;;;5.03;1.93;;;;;;;-145.69;100.00;73673.47;5075155;28;20203;-78
2021/12/14 00:58:51;;;;;;;5.13;2.03;;;;;;;-145.69;100.00;73639.63;5075484;28;20203;-78
2021/12/14 01:01:21;;;;;;;2.70;1.40;;;;;;;-145.69;100.00;73595.81;5075074;28;20202;-78
2021/12/14 01:03:50;;;;;;;3.47;1.67;;;;;;;-145.69;100.00;73605.78;5075006;28;20677;-78
2021/12/14 01:06:18;;;;;;;3.10;1.37;;;;;;;-145.69;100.00;73655.56;5074945;28;20238;-78
2021/12/14 01:08:46;;;;;;;3.53;1.10;;;;;;;-145.69;100.00;73671.47;5068691;28;20199;-78
2021/12/14 01:11:19;;;;;;;2.53;1.40;;;;;;;-145.69;100.00;73663.53;5055397;28;20204;-79
2021/12/14 01:13:56;;;;;;;3.10;1.07;;;;;;;-145.69;100.00;73657.53;5067929;28;20248;-78
2021/12/14 01:16:36;;;;;;;2.87;0.90;;;;;;;-145.69;100.00;73643.59;5074793;28;20202;-78
2021/12/14 01:19:15;;;;;;;1.03;0.73;;;;;;;-145.69;100.00;73649.59;5074676;28;20240;-78
2021/12/14 01:22:10;;;;;;;0.90;0.73;;;;;;;-145.69;100.00;73669.50;5074791;28;20217;-77
2021/12/14 01:25:00;;;;;;;3.00;0.70;;;;;;;-145.69;100.00;73667.50;5074765;28;20613;-78
2021/12/14 01:27:32;;;;;;;1.63;1.07;;;;;;;-145.69;100.00;73607.78;5074351;28;20195;-78
2021/12/14 01:30:03;;;;;;;3.17;1.00;;;;;;;-145.69;100.00;73623.69;5074941;28;20210;-78
2021/12/14 01:32:32;;;;;;;1.30;0.90;;;;;;;-145.69;100.00;73639.63;5074749;28;20225;-78
2021/12/14 01:34:59;;;;;;;2.30;1.37;;;;;;;-145.69;100.00;73667.50;5074269;28;20577;-78
2021/12/14 01:37:29;;;;;;;2.63;1.40;;;;;;;-145.69;100.00;73675.47;5074087;28;20213;-78
2021/12/14 01:40:05;;;;;;;3.83;1.43;;;;;;;-145.69;100.00;73667.50;5074195;28;20636;-78
2021/12/14 01:42:36;;;;;;;2.37;1.50;;;;;;;-145.69;100.00;73651.56;5074013;28;20643;-78
2021/12/14 01:45:09;;;;;;;2.10;1.43;;;;;;;-145.69;100.00;73669.50;5074197;28;20680;-78
2021/12/14 01:47:40;;;;;;;2.20;0.97;;;;;;;-145.69;100.00;73613.75;5073762;28;20202;-78
2021/12/14 01:50:17;;;;;;;1.10;1.00;;;;;;;-145.69;100.00;73613.75;5074152;28;20213;-78
2021/12/14 01:52:44;;;;;;;2.93;1.23;;;;;;;-145.69;100.00;73611.75;5074460;28;20199;-77
2021/12/14 01:55:14;;;;;;;2.63;1.20;;;;;;;-145.69;100.00;73589.84;5073219;28;20322;-78
2021/12/14 01:57:43;;;;;;;5.23;1.30;;;;;;;-145.69;100.00;73587.88;5073760;28;20680;-78
2021/12/14 02:00:19;;;;;;;2.90;1.37;;;;;;;-145.69;100.00;73593.84;5073972;28;20588;-77
2021/12/14 02:02:50;;;;;;;3.37;1.70;;;;;;;-145.69;100.00;73601.81;5073757;28;20688;-78
2021/12/14 02:05:21;;;;;;;5.87;1.97;;;;;;;-145.69;100.00;73579.91;5073749;28;20748;-79
2021/12/14 02:07:49;;;;;;;3.07;1.60;;;;;;;-145.69;100.00;73587.88;5073066;28;20203;-78
2021/12/14 02:10:22;;;;;;;2.40;1.13;;;;;;;-145.69;100.00;73601.81;5073495;28;20198;-78
2021/12/14 02:12:50;;;;;;;2.03;1.20;;;;;;;-145.69;100.00;73601.81;5073556;28;20240;-78
2021/12/14 02:15:27;;;;;;;3.67;1.80;;;;;;;-145.69;100.00;73605.78;5073423;28;20208;-79
2021/12/14 02:17:58;;;;;;;4.70;2.00;;;;;;;-145.69;100.00;73621.72;5073867;28;20289;-78
2021/12/14 02:20:30;;;;;;;4.03;1.67;;;;;;;-145.69;100.00;73619.72;5073808;28;20260;-78
2021/12/14 02:22:59;;;;;;;4.90;1.53;;;;;;;-145.69;100.00;73643.59;5073706;28;20199;-78
2021/12/14 02:25:26;;;;;;;1.30;0.90;;;;;;;-145.69;100.00;73611.75;5073463;28;20195;-79
2021/12/14 02:27:56;;;;;;;1.77;1.30;;;;;;;-145.69;100.00;73627.69;5073116;28;20217;-79
2021/12/14 02:30:28;;;;;;;1.40;0.80;;;;;;;-145.69;100.00;73645.59;5073555;28;20194;-78
2021/12/14 02:32:56;;;;;;;1.73;0.63;;;;;;;-145.69;100.00;73659.53;5073422;28;20620;-78
2021/12/14 02:35:25;;;;;;;4.63;0.87;;;;;;;-145.69;100.00;73623.69;5073249;28;20206;-77
2021/12/14 02:37:56;;;;;;;0.97;0.87;;;;;;;-145.69;100.00;73621.72;5073314;28;20478;-79
2021/12/14 02:40:53;;;;;;;1.50;0.97;;;;;;;-145.69;100.00;73655.56;5073407;28;20557;-78
2021/12/14 02:43:19;;;;;;;0.70;0.57;;;;;;;-145.69;100.00;73675.47;5072901;28;20241;-78
2021/12/14 02:45:45;;;;;;;0.73;0.70;;;;;;;-145.69;100.00;73687.41;5072910;28;20700;-78
2021/12/14 02:48:13;;;;;;;6.00;1.00;;;;;;;-145.69;100.00;73679.44;5072985;28;20194;-78
2021/12/14 02:50:40;;;;;;;1.87;0.80;;;;;;;-145.69;100.00;73683.44;5073035;28;20653;-78
2021/12/14 02:53:07;;;;;;;1.23;0.80;;;;;;;-145.69;100.00;73703.34;5072864;28;20207;-79
2021/12/14 02:55:35;;;;;;;0.97;0.60;;;;;;;-145.69;100.00;73715.28;5072743;28;20230;-78
2021/12/14 02:58:05;;;;;;;0.80;0.80;;;;;;;-145.69;100.00;73711.31;5073126;28;20203;-79
2021/12/14 03:00:37;;;;;;;1.67;1.00;;;;;;;-145.69;100.00;73701.34;5066577;28;20199;-79
2021/12/14 03:03:06;;;;;;;1.60;0.80;;;;;;;-145.69;100.00;73615.72;5072895;28;20194;-78
2021/12/14 03:05:35;;;;;;;1.10;0.80;;;;;;;-145.69;100.00;73603.78;5072764;28;20566;-78
2021/12/14 03:08:07;;;;;;;2.63;0.87;;;;;;;-145.69;100.00;73575.91;5072977;28;20198;-78
2021/12/14 03:10:52;;;;;;;1.43;0.90;;;;;;;-145.69;100.00;73558.00;5073029;28;20202;-78
2021/12/14 03:13:19;;;;;;;1.07;0.80;;;;;;;-145.69;100.00;73595.81;5072691;28;20661;-78
2021/12/14 03:15:52;;;;;;;1.23;0.90;;;;;;;-145.69;100.00;73603.78;5072733;28;20198;-78
2021/12/14 03:18:24;;;;;;;1.40;0.90;;;;;;;-145.69;100.00;73548.03;5073976;28;20525;-78
2021/12/14 03:20:53;;;;;;;2.45;1.25;;;;;;;-145.69;100.00;73558.00;5076086;28;20449;-78
2021/12/14 03:23:23;;;;;;;4.33;1.23;;;;;;;-145.69;100.00;73496.28;5076745;28;20667;-78
2021/12/14 03:25:54;;;;;;;2.03;1.00;;;;;;;-145.69;100.00;73500.25;5076658;28;20565;-78
2021/12/14 03:28:23;;;;;;;5.27;0.87;;;;;;;-145.69;100.00;73498.28;5076767;28;20199;-78
2021/12/14 03:31:00;;;;;;;1.60;1.00;;;;;;;-145.69;100.00;73494.28;5076759;28;20199;-78
2021/12/14 03:33:30;;;;;;;3.13;1.10;;;;;;;-145.69;100.00;73512.22;5076473;28;20252;-78
2021/12/14 03:36:00;;;;;;;1.90;1.20;;;;;;;-145.69;100.00;73518.19;5076316;28;20800;-78
2021/12/14 03:38:31;;;;;;;2.20;1.10;;;;;;;-145.69;100.00;73544.06;5077061;28;20244;-78
2021/12/14 03:41:03;;;;;;;2.33;1.13;;;;;;;-145.69;100.00;73488.31;5076380;28;20202;-78
2021/12/14 03:43:30;;;;;;;2.40;1.17;;;;;;;-145.69;100.00;73500.25;5076583;28;20199;-78
2021/12/14 03:45:58;;;;;;;2.07;1.10;;;;;;;-145.69;100.00;73504.25;5076450;28;20591;-78
2021/12/14 03:48:28;;;;;;;4.47;1.50;;;;;;;-145.69;100.00;73526.16;5076233;28;20210;-78
2021/12/14 03:50:55;;;;;;;2.83;1.50;;;;;;;-145.69;100.00;73546.06;5075831;28;20201;-79
2021/12/14 03:53:22;;;;;;;4.23;1.37;;;;;;;-145.69;100.00;73532.13;5075829;28;20203;-79
2021/12/14 03:55:52;;;;;;;3.50;1.47;;;;;;;-145.69;100.00;73506.22;5076048;28;20210;-79
2021/12/14 03:58:24;;;;;;;2.50;1.07;;;;;;;-145.69;100.00;73504.25;5076019;28;20225;-79
2021/12/14 04:00:55;;;;;;;2.63;1.23;;;;;;;-145.69;100.00;73496.28;5075827;28;20641;-79
2021/12/14 04:03:23;;;;;;;3.17;1.33;;;;;;;-145.69;100.00;73478.34;5076110;28;20206;-79
2021/12/14 04:05:50;;;;;;;2.23;1.20;;;;;;;-145.69;100.00;73476.38;5075761;28;20199;-79
2021/12/14 04:08:19;;;;;;;2.13;0.93;;;;;;;-145.69;100.00;73464.44;5075790;28;20552;-79
2021/12/14 04:10:49;;;;;;;2.47;1.20;;;;;;;-145.69;100.00;73484.34;5075851;28;20285;-79
2021/12/14 04:13:19;;;;;;;1.17;0.90;;;;;;;-145.69;100.00;73520.16;5075986;28;20205;-79
2021/12/14 04:15:47;;;;;;;1.20;0.93;;;;;;;-145.69;100.00;73544.06;5075911;28;20230;-78
2021/12/14 04:18:14;;;;;;;1.27;0.90;;;;;;;-145.69;100.00;73560.00;5075772;28;20202;-79
2021/12/14 04:20:44;;;;;;;1.30;0.80;;;;;;;-145.69;100.00;73560.00;5075634;28;20720;-78
2021/12/14 04:23:16;;;;;;;2.03;0.70;;;;;;;-145.69;100.00;73512.22;5075728;28;20203;-79
2021/12/14 04:25:44;;;;;;;1.70;0.70;;;;;;;-145.69;100.00;73544.06;5075622;28;20233;-79
2021/12/14 04:28:14;;;;;;;0.60;0.60;;;;;;;-145.69;100.00;73561.97;5075350;28;20230;-78
2021/12/14 04:30:41;;;;;;;0.60;0.60;;;;;;;-145.69;100.00;73583.88;5074437;28;20566;-78
2021/12/14 04:33:14;;;;;;;0.50;0.50;;;;;;;-145.69;100.00;73603.78;5075079;28;20695;-78
2021/12/14 04:35:44;;;;;;;2.70;0.70;;;;;;;-145.69;100.00;73621.72;5075620;28;20205;-78
2021/12/14 04:38:19;;;;;;;118.23;4.93;;;;;;;-145.69;100.00;73623.69;5075416;28;20207;-79
2021/12/14 04:51:59;;;;;;;115.17;10.10;;;;;;;-145.69;100.00;73641.63;5065579;28;20219;-78
2021/12/14 04:54:28;;;;;;;76.97;6.37;;;;;;;-145.69;100.00;73631.66;5054906;28;20231;-78
2021/12/14 04:56:55;;;;;;;23.70;4.57;;;;;;;-145.69;100.00;73635.66;5054963;28;20200;-78
2021/12/14 04:59:24;;;;;;;41.73;4.63;;;;;;;-145.69;100.00;73631.66;5054974;28;20206;-78
2021/12/14 05:01:53;;;;;;;18.47;4.57;;;;;;;-145.69;100.00;73609.75;5054488;28;20226;-78
2021/12/14 05:04:24;;;;;;;29.80;6.23;;;;;;;-145.69;100.00;73599.81;5054993;28;20299;-78
2021/12/14 05:06:54;;;;;;;7.90;3.40;;;;;;;-145.69;100.00;73591.84;5068820;28;20220;-78
2021/12/14 05:09:26;;;;;;;38.33;3.93;;;;;;;-145.69;100.00;73579.91;5075242;28;20265;-79
2021/12/14 05:11:55;;;;;;;39.73;4.43;;;;;;;-145.69;100.00;73575.91;5074676;28;20203;-79
2021/12/14 05:14:24;;;;;;;13.40;4.20;;;;;;;-145.69;100.00;73575.91;5074612;28;20199;-78
2021/12/14 05:16:59;;;;;;;36.97;4.77;;;;;;;-145.69;100.00;73589.84;5074578;28;20233;-76
2021/12/14 05:19:29;;;;;;;22.53;3.40;;;;;;;-145.69;100.00;73597.81;5074579;28;20198;-78
2021/12/14 05:22:02;;;;;;;19.67;2.87;;;;;;;-145.69;100.00;73607.78;5074465;28;20210;-77
2021/12/14 05:24:29;;;;;;;23.47;2.77;;;;;;;-145.69;100.00;73619.72;5054462;28;20650;-78
2021/12/14 05:26:57;;;;;;;12.17;1.57;;;;;;;-145.69;100.00;73627.69;5054241;28;20230;-77
2021/12/14 05:29:25;;;;;;;4.43;1.20;;;;;;;-145.69;100.00;73631.66;5054638;28;20282;-77
2021/12/14 05:31:52;;;;;;;4.07;1.20;;;;;;;-145.69;100.00;73621.72;5054040;28;20199;-77
2021/12/14 05:34:22;;;;;;;3.67;0.90;;;;;;;-145.69;100.00;73567.94;5054384;28;20195;-77
2021/12/14 05:36:50;;;;;;;7.23;1.00;;;;;;;-145.69;100.00;73522.16;5054176;28;20681;-77
2021/12/14 05:39:38;;;;;;;6.13;1.07;;;;;;;-145.69;100.00;73536.09;5060033;28;20187;-77
2021/12/14 05:44:51;;;;;;;10.00;1.83;;;;;;;-145.69;100.00;73567.94;5074104;28;20675;-78
2021/12/14 05:47:20;;;;;;;8.50;1.70;;;;;;;-145.69;100.00;73496.28;5073981;28;20232;-78
2021/12/14 05:49:48;;;;;;;18.57;2.53;;;;;;;-145.69;100.00;73464.44;5073892;28;20206;-78
2021/12/14 05:52:19;;;;;;;9.07;2.30;;;;;;;-145.69;100.00;73460.44;5073870;28;20210;-78
2021/12/14 05:54:46;;;;;;;9.97;3.13;;;;;;;-145.69;100.00;73450.50;5073934;28;20230;-78
2021/12/14 05:57:17;;;;;;;10.43;2.60;;;;;;;-145.69;100.00;73434.56;5073629;28;20277;-79
2021/12/14 05:59:45;;;;;;;13.87;3.20;;;;;;;-145.69;100.00;73420.63;5073763;28;20203;-78
2021/12/14 06:02:11;;;;;;;19.13;3.37;;;;;;;-145.69;100.00;73408.69;5073522;28;20206;-78
2021/12/14 06:04:42;;;;;;;19.10;3.40;;;;;;;-145.69;100.00;73416.66;5073569;28;20224;-78
2021/12/14 06:07:11;;;;;;;11.60;3.13;;;;;;;-145.69;100.00;73424.59;5073805;28;20284;-78
2021/12/14 06:09:42;;;;;;;6.90;2.23;;;;;;;-145.69;100.00;73410.66;5073647;28;20203;-78
2021/12/14 06:12:12;;;;;;;13.63;2.60;;;;;;;-145.69;100.00;73400.72;5073315;28;20610;-78
2021/12/14 06:14:43;;;;;;;6.53;2.77;;;;;;;-145.69;100.00;73398.72;5073405;28;20649;-79
2021/12/14 06:17:12;;;;;;;7.93;2.47;;;;;;;-145.69;100.00;73376.81;5073434;28;20222;-79
2021/12/14 06:19:41;;;;;;;9.47;2.80;;;;;;;-145.69;100.00;73378.81;5073544;28;20206;-79
2021/12/14 06:22:13;;;;;;;12.77;2.50;;;;;;;-145.69;100.00;73380.81;5073554;28;20221;-79
2021/12/14 06:24:43;;;;;;;12.30;2.50;;;;;;;-145.69;100.00;73364.88;5073515;28;20205;-78
2021/12/14 06:27:12;;;;;;;10.67;2.73;;;;;;;-145.69;100.00;73372.84;5073124;28;20685;-78
2021/12/14 06:29:41;;;;;;;5.67;2.27;;;;;;;-145.69;100.00;73366.88;5072856;28;20206;-78
2021/12/14 06:32:13;;;;;;;6.53;2.20;;;;;;;-145.69;100.00;73372.84;5073404;28;20210;-78
2021/12/14 06:34:43;;;;;;;7.67;2.40;;;;;;;-145.69;100.00;73380.81;5072941;28;20601;-79
2021/12/14 06:38:09;;;;;;;6.30;2.00;;;;;;;-145.69;100.00;73384.78;5073133;28;20680;-78
2021/12/14 06:40:41;;;;;;;6.80;1.90;;;;;;;-145.69;100.00;73380.81;5072980;28;20195;-78
2021/12/14 06:43:10;;;;;;;14.90;2.40;;;;;;;-145.69;100.00;73378.81;5073246;28;20198;-79
2021/12/14 06:45:40;;;;;;;13.57;2.40;;;;;;;-145.69;100.00;73388.78;5072735;28;20672;-79
2021/12/14 06:48:09;;;;;;;12.37;1.97;;;;;;;-145.69;100.00;73384.78;5072845;28;20265;-80
2021/12/14 06:50:40;;;;;;;8.30;1.60;;;;;;;-145.69;100.00;73348.97;5073051;28;20632;-79
2021/12/14 06:53:13;;;;;;;11.83;1.70;;;;;;;-145.69;100.00;73348.97;5066778;28;20202;-79
2021/12/14 06:55:41;;;;;;;9.93;2.35;;;;;;;-145.69;100.00;73368.88;5070316;28;20442;-79
2021/12/14 06:58:12;;;;;;;5.97;1.83;;;;;;;-145.69;100.00;73358.91;5072772;28;20198;-79
2021/12/14 07:00:44;;;;;;;3.53;1.60;;;;;;;-145.69;100.00;73319.09;5072921;28;20289;-79
2021/12/14 07:03:10;;;;;;;3.67;1.60;;;;;;;-145.69;100.00;73315.13;5072839;28;20680;-79
2021/12/14 07:05:38;;;;;;;8.80;2.47;;;;;;;-145.69;100.00;73319.09;5072623;28;20761;-79
2021/12/14 07:08:11;;;;;;;6.07;2.17;;;;;;;-145.69;100.00;73344.97;5072500;28;20280;-78
2021/12/14 07:10:39;;;;;;;11.77;2.13;;;;;;;-145.69;100.00;73339.00;5072701;28;20198;-79
2021/12/14 07:13:21;;;;;;;6.47;1.70;;;;;;;-145.69;100.00;73325.06;5072682;28;20688;-79
2021/12/14 07:15:48;;;;;;;6.47;1.70;;;;;;;-145.69;100.00;73301.19;5072679;28;20653;-79
2021/12/14 07:18:15;;;;;;;9.03;1.83;;;;;;;-145.69;100.00;73299.19;5072889;28;20230;-79
2021/12/14 07:20:44;;;;;;;19.60;2.87;;;;;;;-145.69;100.00;73325.06;5072811;28;20259;-79
2021/12/14 07:23:21;;;;;;;3.93;1.93;;;;;;;-145.69;100.00;73323.06;5072376;28;20275;-80
2021/12/14 07:25:53;;;;;;;2.50;1.37;;;;;;;-145.69;100.00;73295.19;5072659;28;20612;-79
2021/12/14 07:28:21;;;;;;;5.50;2.33;;;;;;;-145.69;100.00;73305.16;5071942;28;20689;-79
2021/12/14 07:30:50;;;;;;;11.70;2.67;;;;;;;-145.69;100.00;73277.28;5072435;28;20206;-80
2021/12/14 07:33:19;;;;;;;9.03;2.90;;;;;;;-145.69;100.00;73285.25;5072668;28;20202;-79
2021/12/14 07:35:51;;;;;;;71.57;20.37;;;;;;;-145.69;100.00;73281.25;5072458;28;20252;-79
2021/12/14 07:38:23;;;;;;;98.23;32.40;;;;;;;-145.69;100.00;73285.25;5072325;28;20573;-80
2021/12/14 07:40:53;;;;;;;28.10;10.50;;;;;;;-145.69;100.00;73255.38;5072807;28;20554;-80
2021/12/14 07:43:25;;;;;;;12.17;2.80;;;;;;;-145.69;100.00;73249.41;5072583;28;20653;-80
2021/12/14 07:45:54;;;;;;;4.53;2.20;;;;;;;-145.69;100.00;73251.41;5072794;28;20202;-80
2021/12/14 07:48:38;;;;;;;4.37;1.80;;;;;;;-145.69;100.00;73237.47;5072135;28;20715;-80
2021/12/14 07:51:05;;;;;;;2.90;1.30;;;;;;;-145.69;100.00;73229.50;5072803;28;20657;-80
2021/12/14 07:53:34;;;;;;;10.77;1.93;;;;;;;-145.69;100.00;73221.53;5072486;28;20447;-80
2021/12/14 07:56:02;;;;;;;8.40;1.93;;;;;;;-145.69;100.00;73221.53;5072613;28;20206;-80
2021/12/14 07:58:36;;;;;;;3.97;1.80;;;;;;;-145.69;100.00;73225.53;5072455;28;20248;-80
2021/12/14 08:01:03;;;;;;;5.87;2.60;;;;;;;-145.69;100.00;73241.44;5072759;28;20214;-81
2021/12/14 08:03:33;;;;;;;6.30;2.23;;;;;;;-145.69;100.00;73241.44;5074064;28;20199;-79
2021/12/14 08:06:02;;;;;;;7.47;2.47;;;;;;;-145.69;100.00;73235.47;5077081;28;20199;-79
2021/12/14 08:08:42;;;;;;;4.63;2.47;;;;;;;-145.69;100.00;73239.47;5076286;28;20230;-79
2021/12/14 08:11:40;;;;;;;5.10;2.30;;;;;;;-145.69;100.00;73239.47;5076279;28;20206;-79
2021/12/14 08:14:15;;;;;;;4.13;2.10;;;;;;;-145.69;100.00;73241.44;5076008;28;20195;-79
2021/12/14 08:16:48;;;;;;;9.43;2.80;;;;;;;-145.69;100.00;73225.53;5076369;28;20202;-79
2021/12/14 08:19:25;;;;;;;11.47;2.57;;;;;;;-145.69;100.00;73213.56;5076296;28;20203;-79
2021/12/14 08:21:51;;;;;;;13.27;3.17;;;;;;;-145.69;100.00;73213.56;5075484;28;20289;-79
2021/12/14 08:24:19;;;;;;;7.80;2.80;;;;;;;-145.69;100.00;73203.63;5075378;28;20729;-80
2021/12/14 08:26:48;;;;;;;8.43;3.27;;;;;;;-145.69;100.00;73169.78;5075910;28;20217;-80
2021/12/14 08:29:20;;;;;;;7.50;3.07;;;;;;;-145.69;100.00;73157.84;5075374;28;20226;-80
2021/12/14 08:31:50;;;;;;;6.77;3.20;;;;;;;-145.69;100.00;73143.91;5075727;28;20210;-80
2021/12/14 08:34:23;;;;;;;10.73;3.43;;;;;;;-145.69;100.00;73124.00;5075454;28;20206;-81
2021/12/14 08:36:54;;;;;;;6.63;3.07;;;;;;;-145.69;100.00;73122.00;5075614;28;20214;-81
2021/12/14 08:39:23;;;;;;;9.67;2.97;;;;;;;-145.69;100.00;73118.03;5075465;28;20213;-81
2021/12/14 08:41:56;;;;;;;12.30;3.37;;;;;;;-145.69;100.00;73114.03;5075326;28;20661;-81
2021/12/14 08:44:35;;;;;;;10.17;3.20;;;;;;;-145.69;100.00;73108.06;5075291;28;20199;-81
2021/12/14 08:47:03;;;;;;;12.20;3.23;;;;;;;-145.69;100.00;73118.03;5074681;28;20222;-81
2021/12/14 08:49:30;;;;;;;9.07;2.87;;;;;;;-145.69;100.00;73110.06;5075430;28;20249;-80
2021/12/14 08:51:57;;;;;;;9.43;3.43;;;;;;;-145.69;100.00;73112.06;5075949;28;20201;-80
2021/12/14 08:54:28;;;;;;;10.20;3.03;;;;;;;-145.69;100.00;73118.03;5061756;28;20229;-80
2021/12/14 08:56:57;;;;;;;6.53;2.67;;;;;;;-145.69;100.00;73104.09;5055136;28;20196;-80
2021/12/14 08:59:24;;;;;;;6.60;2.33;;;;;;;-145.69;100.00;73090.16;5055013;28;20261;-79
2021/12/14 09:01:53;;;;;;;8.30;3.03;;;;;;;-145.69;100.00;73098.13;5054876;28;20552;-79
2021/12/14 09:04:23;;;;;;;7.57;2.03;;;;;;;-145.69;100.00;73090.16;5074070;28;20201;-80
2021/12/14 09:06:53;;;;;;;4.10;2.07;;;;;;;-145.69;100.00;73044.38;5075032;28;20203;-80
2021/12/14 09:09:22;;;;;;;5.73;2.03;;;;;;;-145.69;100.00;73026.44;5074797;28;20230;-79
2021/12/14 09:11:54;;;;;;;6.60;2.33;;;;;;;-145.69;100.00;73022.47;5075723;28;20297;-78
2021/12/14 09:14:22;;;;;;;5.83;2.73;;;;;;;-145.69;100.00;73032.44;5074694;28;20203;-78
2021/12/14 09:16:57;;;;;;;9.30;2.60;;;;;;;-145.69;100.00;73008.53;5074323;28;20565;-78
2021/12/14 09:19:30;;;;;;;5.27;1.97;;;;;;;-145.69;100.00;72970.72;5074672;28;20252;-78
2021/12/14 09:22:00;;;;;;;11.80;2.17;;;;;;;-145.69;100.00;72954.78;5074753;28;20202;-77
2021/12/14 09:24:29;;;;;;;6.77;1.80;;;;;;;-145.69;100.00;72934.88;5074768;28;20206;-78
2021/12/14 09:27:00;;;;;;;36.90;16.53;;;;;;;-145.69;100.00;72926.91;5074964;28;20206;-78
2021/12/14 09:29:29;;;;;;;18.50;9.27;;;;;;;-145.69;100.00;72930.91;5074360;28;20226;-77
2021/12/14 09:31:59;;;;;;;32.87;15.00;;;;;;;-145.69;100.00;72934.88;5074666;28;20255;-77
2021/12/14 09:34:27;;;;;;;25.13;11.77;;;;;;;-145.69;100.00;72930.91;5074675;28;20209;-77
2021/12/14 09:36:57;;;;;;;20.53;10.60;;;;;;;-145.69;100.00;72930.91;5074061;28;20202;-77
2021/12/14 09:39:29;;;;;;;25.93;10.43;;;;;;;-145.69;100.00;72958.78;5074340;28;20665;-77
2021/12/14 09:41:59;;;;;;;20.77;11.00;;;;;;;-145.69;100.00;72976.69;5074630;28;20293;-77
2021/12/14 09:44:30;;;;;;;19.07;9.27;;;;;;;-145.69;100.00;72950.81;5074458;28;20199;-77
2021/12/14 09:47:01;;;;;;;20.90;9.70;;;;;;;-145.69;100.00;72928.91;5074167;28;20209;-78
2021/12/14 09:49:28;;;;;;;21.33;9.30;;;;;;;-145.69;100.00;72934.88;5074142;28;20226;-77
2021/12/14 09:51:57;;;;;;;22.83;9.53;;;;;;;-145.69;100.00;72918.97;5073846;28;20645;-77
2021/12/14 09:54:26;;;;;;;15.13;5.97;;;;;;;-145.69;100.00;72926.91;5074177;28;20257;-77
2021/12/14 09:56:56;;;;;;;11.97;5.20;;;;;;;-145.69;100.00;72909.00;5074157;28;20210;-77
2021/12/14 09:59:23;;;;;;;15.73;6.13;;;;;;;-145.69;100.00;72895.06;5072958;28;20263;-77
2021/12/14 10:01:54;;;;;;;7.80;3.60;;;;;;;-145.69;100.00;72885.13;5071892;28;20198;-78
2021/12/14 10:04:26;;;;;;;7.80;3.47;;;;;;;-145.69;100.00;72847.28;5071737;28;20202;-78
2021/12/14 10:06:53;;;;;;;4.93;2.50;;;;;;;-145.69;100.00;72819.44;5072087;28;20357;-77
2021/12/14 10:09:23;;;;;;;5.80;3.07;;;;;;;-145.69;100.00;72801.50;5071758;28;20630;-78
2021/12/14 10:12:07;;;;;;;6.43;3.43;;;;;;;-145.69;100.00;72807.47;5072320;28;20676;-78
2021/12/14 10:14:37;;;;;;;5.53;2.60;;;;;;;-145.69;100.00;72777.63;5072707;28;20202;-78
2021/12/14 10:17:06;;;;;;;5.23;1.53;;;;;;;-145.69;100.00;72799.53;5073960;28;20199;-79
2021/12/14 10:19:36;;;;;;;3.90;1.40;;;;;;;-145.69;100.00;72801.50;5073685;28;20206;-78
2021/12/14 10:22:08;;;;;;;5.53;1.40;;;;;;;-145.69;100.00;72789.56;5073689;28;20206;-78
2021/12/14 10:24:35;;;;;;;14.57;1.40;;;;;;;-145.69;100.00;72793.56;5073402;28;20657;-78
2021/12/14 10:27:05;;;;;;;2.87;1.47;;;;;;;-145.69;100.00;72807.47;5072615;28;20195;-78
2021/12/14 10:29:32;;;;;;;5.77;0.97;;;;;;;-145.69;100.00;72803.50;5073196;28;20226;-78
2021/12/14 10:32:03;;;;;;;3.80;1.20;;;;;;;-145.69;100.00;72783.59;5073389;28;20649;-78
2021/12/14 10:34:34;;;;;;;5.17;1.40;;;;;;;-145.69;100.00;72753.75;5073446;28;20206;-78
2021/12/14 10:37:10;;;;;;;5.30;1.70;;;;;;;-145.69;100.00;72729.84;5073238;28;20202;-78
2021/12/14 10:42:38;;;;;;;22.50;10.00;;;;;;;-145.69;100.00;72721.88;5073369;28;20308;-78
2021/12/14 10:45:29;;;;;;;14.67;8.50;;;;;;;-145.69;100.00;72773.66;5031225;28;20238;-78
2021/12/14 10:47:58;;;;;;;14.13;8.13;;;;;;;-145.69;100.00;72787.56;5030824;28;20578;-78
2021/12/14 10:50:31;;;;;;;13.70;8.47;;;;;;;-145.69;100.00;72787.56;5050631;28;20206;-79
2021/12/14 10:53:01;;;;;;;15.60;8.57;;;;;;;-145.69;100.00;72765.69;5073230;28;20234;-79
2021/12/14 10:55:32;;;;;;;32.20;18.27;;;;;;;-145.69;100.00;72757.72;5073011;28;20246;-79
2021/12/14 10:57:58;;;;;;;30.90;14.87;;;;;;;-145.69;100.00;72791.56;5072835;28;20221;-78
2021/12/14 11:00:31;;;;;;;27.03;14.33;;;;;;;-145.69;100.00;72785.59;5073203;28;20249;-77
2021/12/14 11:03:02;;;;;;;218.43;70.37;;;;;;;-145.69;100.00;72795.53;5055064;28;20199;-79
2021/12/14 11:05:31;;;;;;;47.03;21.47;;;;;;;-145.69;100.00;72759.72;5052132;28;20198;-79
2021/12/14 11:08:00;;;;;;;34.70;17.27;;;;;;;-145.69;100.00;72749.75;5052004;28;20678;-79
2021/12/14 11:10:31;;;;;;;37.37;19.83;;;;;;;-145.69;100.00;72739.81;5052492;28;20203;-79
2021/12/14 11:13:01;;;;;;;46.50;21.37;;;;;;;-145.69;100.00;72711.94;5052466;28;20199;-79
2021/12/14 11:15:30;;;;;;;49.40;24.87;;;;;;;-145.69;100.00;72719.91;5063170;28;20191;-80
2021/12/14 11:18:11;;;;;;;47.23;21.70;;;;;;;-145.69;100.00;72700.00;5072562;28;20301;-79
2021/12/14 11:20:42;;;;;;;36.60;17.83;;;;;;;-145.69;100.00;72680.09;5072516;28;20722;-79
2021/12/14 11:23:13;;;;;;;32.97;15.40;;;;;;;-145.69;100.00;72701.97;5072395;28;20232;-79
2021/12/14 11:25:46;;;;;;;38.00;17.00;;;;;;;-145.69;100.00;72696.00;5072270;28;20205;-79
2021/12/14 11:28:17;;;;;;;26.27;13.43;;;;;;;-145.69;100.00;72698.00;5072525;28;20689;-79
2021/12/14 11:30:47;;;;;;;20.57;9.40;;;;;;;-145.69;100.00;72672.13;5073330;28;20199;-79
2021/12/14 11:33:19;;;;;;;17.70;8.00;;;;;;;-145.69;100.00;72652.22;5072365;28;20211;-79
2021/12/14 11:35:49;;;;;;;12.70;6.30;;;;;;;-145.69;100.00;72644.25;5071185;28;20653;-79
2021/12/14 11:38:34;;;;;;;11.70;5.97;;;;;;;-145.69;100.00;72624.34;5073232;28;20202;-79
2021/12/14 11:41:22;;;;;;;14.87;5.73;;;;;;;-145.69;100.00;72580.56;5076286;28;20209;-79